createdAt,value
2022-11-27T00:02:40.744Z,3.78
2022-11-27T00:06:19.602Z,3.79
2022-11-27T00:09:53.936Z,3.80
2022-11-27T00:13:31.746Z,3.80
2022-11-27T00:17:09.464Z,3.82
2022-11-27T00:20:47.049Z,3.83
2022-11-27T00:24:24.957Z,3.82
2022-11-27T00:28:02.663Z,3.81
2022-11-27T00:31:40.417Z,3.82
2022-11-27T00:35:17.973Z,3.80
2022-11-27T00:38:56.082Z,3.81
2022-11-27T00:42:33.376Z,3.80
2022-11-27T00:46:11.782Z,3.81
2022-11-27T00:49:48.785Z,3.83
2022-11-27T00:53:26.355Z,3.82
2022-11-27T00:57:04.909Z,3.82
2022-11-27T01:00:41.897Z,3.83
2022-11-27T01:04:19.601Z,3.84
2022-11-27T01:07:57.356Z,3.85
2022-11-27T01:11:36.439Z,3.88
2022-11-27T01:15:12.918Z,3.88
2022-11-27T01:18:51.749Z,3.88
2022-11-27T01:22:28.019Z,3.87
2022-11-27T01:26:08.590Z,3.88
2022-11-27T01:29:43.326Z,3.88
2022-11-27T01:33:21.234Z,3.88
2022-11-27T01:36:58.836Z,3.88
2022-11-27T01:40:36.462Z,3.88
2022-11-27T01:44:26.122Z,3.88
2022-11-27T01:47:59.119Z,3.89
2022-11-27T01:51:31.393Z,3.91
2022-11-27T01:55:40.022Z,3.92
2022-11-27T01:58:50.800Z,3.93
2022-11-27T02:02:28.557Z,3.95
2022-11-27T02:06:05.793Z,3.96
2022-11-27T02:09:43.704Z,3.96
2022-11-27T02:13:32.774Z,3.97
2022-11-27T02:17:22.561Z,3.97
2022-11-27T02:20:45.829Z,3.97
2022-11-27T02:25:08.588Z,3.97
2022-11-27T02:28:46.599Z,3.96
2022-11-27T02:32:20.309Z,3.95
2022-11-27T02:35:45.931Z,3.95
2022-11-27T02:39:18.269Z,3.96
2022-11-27T02:42:56.014Z,3.97
2022-11-27T02:46:29.360Z,3.98
2022-11-27T02:50:11.311Z,3.98
2022-11-27T02:53:48.310Z,3.97
2022-11-27T02:57:23.659Z,3.95
2022-11-27T03:01:00.034Z,3.96
2022-11-27T03:04:46.541Z,3.98
2022-11-27T03:08:44.009Z,4.00
2022-11-27T03:11:55.702Z,4.00
2022-11-27T03:15:50.845Z,4.00
2022-11-27T03:19:17.375Z,4.01
2022-11-27T03:22:47.687Z,4.02
2022-11-27T03:26:26.559Z,4.04
2022-11-27T03:30:07.487Z,4.05
2022-11-27T03:33:40.805Z,4.05
2022-11-27T03:37:18.811Z,4.04
2022-11-27T03:41:08.602Z,4.04
2022-11-27T03:45:01.906Z,4.04
2022-11-27T03:48:19.809Z,4.03
2022-11-27T03:52:21.886Z,3.99
2022-11-27T03:55:42.796Z,3.96
2022-11-27T03:59:18.247Z,3.93
2022-11-27T04:02:51.036Z,3.90
2022-11-27T04:06:25.360Z,3.89
2022-11-27T04:10:04.386Z,3.87
2022-11-27T04:13:40.874Z,3.85
2022-11-27T04:17:18.574Z,3.85
2022-11-27T04:20:56.688Z,3.87
2022-11-27T04:24:33.881Z,3.89
2022-11-27T04:28:11.687Z,3.90
2022-11-27T04:31:49.375Z,3.90
2022-11-27T04:35:27.002Z,3.91
2022-11-27T04:39:04.698Z,3.91
2022-11-27T04:42:42.504Z,3.91
2022-11-27T04:46:20.258Z,3.89
2022-11-27T04:49:57.810Z,3.87
2022-11-27T04:53:35.515Z,3.85
2022-11-27T04:57:13.218Z,3.84
2022-11-27T05:00:51.009Z,3.83
2022-11-27T05:04:28.626Z,3.84
2022-11-27T05:08:06.334Z,3.85
2022-11-27T05:11:44.239Z,3.85
2022-11-27T05:15:21.689Z,3.85
2022-11-27T05:18:59.444Z,3.84
2022-11-27T05:22:37.146Z,3.84
2022-11-27T05:26:14.647Z,3.86
2022-11-27T05:29:52.556Z,3.89
2022-11-27T05:33:30.261Z,3.90
2022-11-27T05:37:07.966Z,3.90
2022-11-27T05:40:45.566Z,3.90
2022-11-27T05:44:23.270Z,3.88
2022-11-27T05:48:01.078Z,3.91
2022-11-27T05:51:38.884Z,3.95
2022-11-27T05:55:16.484Z,3.98
2022-11-27T05:58:54.087Z,4.00
2022-11-27T06:02:32.717Z,3.99
2022-11-27T06:06:20.349Z,3.99
2022-11-27T06:09:47.217Z,3.99
2022-11-27T06:13:24.902Z,3.99
2022-11-27T06:17:03.018Z,4.00
2022-11-27T06:20:59.156Z,4.05
2022-11-27T06:24:18.014Z,4.07
2022-11-27T06:27:55.720Z,4.07
2022-11-27T06:31:33.863Z,4.05
2022-11-27T06:35:11.332Z,4.06
2022-11-27T06:38:48.735Z,4.08
2022-11-27T06:42:30.369Z,4.08
2022-11-27T06:46:06.542Z,4.05
2022-11-27T06:49:41.843Z,4.05
2022-11-27T06:53:19.956Z,4.07
2022-11-27T06:56:58.478Z,4.09
2022-11-27T07:00:34.880Z,4.10
2022-11-27T07:04:15.014Z,4.11
2022-11-27T07:07:50.476Z,4.14
2022-11-27T07:11:31.989Z,4.14
2022-11-27T07:15:06.283Z,4.15
2022-11-27T07:18:47.061Z,4.15
2022-11-27T07:22:21.180Z,4.16
2022-11-27T07:25:59.808Z,4.19
2022-11-27T07:29:36.587Z,4.22
2022-11-27T07:33:14.291Z,4.23
2022-11-27T07:36:52.918Z,4.25
2022-11-27T07:40:29.598Z,4.24
2022-11-27T07:44:07.301Z,4.24
2022-11-27T07:47:45.195Z,4.25
2022-11-27T07:51:23.022Z,4.27
2022-11-27T07:55:00.312Z,4.28
2022-11-27T07:58:38.119Z,4.31
2022-11-27T08:02:16.129Z,4.32
2022-11-27T08:05:53.528Z,4.34
2022-11-27T08:09:31.333Z,4.36
2022-11-27T08:13:09.448Z,4.38
2022-11-27T08:16:46.777Z,4.41
2022-11-27T08:20:24.753Z,4.43
2022-11-27T08:24:02.047Z,4.46
2022-11-27T08:27:39.958Z,4.50
2022-11-27T08:31:18.228Z,4.53
2022-11-27T08:34:55.058Z,4.56
2022-11-27T08:38:33.171Z,4.58
2022-11-27T08:42:10.569Z,4.61
2022-11-27T08:46:07.498Z,4.66
2022-11-27T08:49:25.979Z,4.71
2022-11-27T08:53:03.988Z,4.77
2022-11-27T08:56:41.283Z,4.80
2022-11-27T09:00:24.943Z,4.86
2022-11-27T09:03:57.185Z,4.91
2022-11-27T09:07:34.520Z,4.93
2022-11-27T09:11:13.738Z,4.97
2022-11-27T09:14:49.804Z,5.03
2022-11-27T09:18:27.508Z,5.08
2022-11-27T09:22:05.211Z,5.11
2022-11-27T09:26:03.601Z,5.11
2022-11-27T09:29:20.761Z,5.14
2022-11-27T09:32:58.326Z,5.18
2022-11-27T09:36:36.542Z,5.24
2022-11-27T09:40:16.977Z,5.31
2022-11-27T09:43:57.002Z,5.36
2022-11-27T09:47:41.992Z,5.38
2022-11-27T09:51:15.447Z,5.39
2022-11-27T09:55:18.343Z,5.39
2022-11-27T09:58:38.856Z,5.40
2022-11-27T10:02:18.310Z,5.41
2022-11-27T10:06:04.388Z,5.39
2022-11-27T10:09:36.972Z,5.37
2022-11-27T10:13:14.304Z,5.36
2022-11-27T10:16:44.359Z,5.36
2022-11-27T10:20:50.565Z,5.37
2022-11-27T10:24:07.175Z,5.35
2022-11-27T10:27:44.474Z,5.36
2022-11-27T10:31:36.682Z,5.37
2022-11-27T10:35:01.725Z,5.37
2022-11-27T10:38:39.219Z,5.38
2022-11-27T10:42:48.772Z,5.39
2022-11-27T10:46:22.154Z,5.38
2022-11-27T10:49:41.026Z,5.37
2022-11-27T10:53:29.152Z,5.38
2022-11-27T10:57:05.763Z,5.40
2022-11-27T11:00:29.851Z,5.43
2022-11-27T11:04:31.643Z,5.43
2022-11-27T11:07:57.109Z,5.44
2022-11-27T11:11:26.980Z,5.43
2022-11-27T11:15:01.699Z,5.42
2022-11-27T11:18:49.248Z,5.42
2022-11-27T11:22:17.405Z,5.40
2022-11-27T11:25:57.126Z,5.36
2022-11-27T11:29:42.439Z,5.33
2022-11-27T11:33:13.791Z,5.32
2022-11-27T11:36:57.821Z,5.34
2022-11-27T11:40:31.550Z,5.36
2022-11-27T11:44:02.708Z,5.40
2022-11-27T11:47:49.751Z,5.42
2022-11-27T11:51:29.411Z,5.45
2022-11-27T11:55:14.457Z,5.48
2022-11-27T11:58:35.982Z,5.51
2022-11-27T12:02:43.394Z,5.56
2022-11-27T12:06:00.710Z,5.59
2022-11-27T12:09:41.690Z,5.58
2022-11-27T12:13:32.947Z,5.71
2022-11-27T12:17:00.712Z,5.98
2022-11-27T12:20:57.740Z,6.18
2022-11-27T12:24:48.553Z,6.35
2022-11-27T12:28:24.515Z,6.49
2022-11-27T12:32:11.760Z,6.52
2022-11-27T12:35:37.877Z,6.52
2022-11-27T12:39:23.157Z,6.53
2022-11-27T12:43:06.939Z,6.56
2022-11-27T12:46:26.915Z,6.58
2022-11-27T12:50:03.607Z,6.53
2022-11-27T12:53:51.830Z,6.47
2022-11-27T12:57:28.302Z,6.41
2022-11-27T13:00:50.759Z,6.36
2022-11-27T13:04:37.469Z,6.32
2022-11-27T13:08:16.623Z,6.27
2022-11-27T13:11:43.345Z,6.21
2022-11-27T13:15:45.563Z,6.16
2022-11-27T13:19:14.642Z,6.10
2022-11-27T13:22:37.206Z,6.04
2022-11-27T13:26:23.231Z,5.99
2022-11-27T13:30:02.773Z,5.96
2022-11-27T13:33:37.761Z,5.93
2022-11-27T13:37:08.402Z,5.92
2022-11-27T13:40:46.907Z,5.89
2022-11-27T13:44:27.425Z,5.86
2022-11-27T13:48:12.164Z,5.82
2022-11-27T13:51:39.425Z,5.80
2022-11-27T13:55:24.530Z,5.79
2022-11-27T13:58:52.288Z,5.78
2022-11-27T14:02:59.486Z,5.76
2022-11-27T14:06:21.937Z,5.75
2022-11-27T14:09:56.793Z,5.74
2022-11-27T14:13:40.925Z,5.73
2022-11-27T14:17:07.676Z,5.71
2022-11-27T14:20:51.602Z,5.67
2022-11-27T14:24:30.390Z,5.66
2022-11-27T14:28:19.916Z,5.66
2022-11-27T14:31:36.144Z,5.61
2022-11-27T14:35:23.986Z,5.59
2022-11-27T14:38:50.411Z,5.58
2022-11-27T14:42:31.248Z,5.56
2022-11-27T14:46:06.314Z,5.52
2022-11-27T14:49:43.551Z,5.49
2022-11-27T14:53:22.854Z,5.47
2022-11-27T14:57:00.675Z,5.45
2022-11-27T15:00:35.801Z,5.44
2022-11-27T15:04:36.342Z,5.44
2022-11-27T15:07:54.231Z,5.39
2022-11-27T15:11:54.089Z,5.36
2022-11-27T15:15:14.802Z,5.32
2022-11-27T15:18:50.982Z,5.29
2022-11-27T15:22:22.951Z,5.25
2022-11-27T15:25:59.424Z,5.24
2022-11-27T15:29:38.374Z,5.21
2022-11-27T15:33:33.059Z,5.19
2022-11-27T15:37:03.794Z,5.19
2022-11-27T15:40:34.568Z,5.15
2022-11-27T15:44:29.347Z,5.12
2022-11-27T15:47:45.649Z,5.53
2022-11-27T15:51:23.426Z,6.08
2022-11-27T15:55:01.603Z,6.53
2022-11-27T15:58:40.167Z,6.91
2022-11-27T16:02:18.305Z,6.93
2022-11-27T16:05:55.951Z,6.72
2022-11-27T16:09:32.865Z,6.42
2022-11-27T16:13:09.887Z,6.17
2022-11-27T16:16:53.783Z,5.91
2022-11-27T16:20:31.382Z,5.66
2022-11-27T16:24:06.191Z,5.43
2022-11-27T16:27:46.332Z,5.23
2022-11-27T16:31:24.233Z,5.07
2022-11-27T16:35:00.291Z,4.94
2022-11-27T16:38:37.919Z,4.81
2022-11-27T16:42:17.367Z,4.71
2022-11-27T16:45:53.230Z,4.60
2022-11-27T16:49:30.832Z,4.53
2022-11-27T16:53:08.563Z,4.48
2022-11-27T16:56:46.272Z,4.43
2022-11-27T17:00:23.834Z,4.39
2022-11-27T17:04:03.778Z,4.37
2022-11-27T17:07:39.918Z,4.35
2022-11-27T17:11:25.148Z,4.35
2022-11-27T17:14:54.690Z,4.33
2022-11-27T17:18:32.796Z,4.30
2022-11-27T17:22:10.359Z,4.24
2022-11-27T17:26:11.620Z,4.20
2022-11-27T17:29:24.821Z,4.19
2022-11-27T17:33:02.654Z,4.17
2022-11-27T17:36:43.182Z,4.19
2022-11-27T17:40:18.163Z,4.19
2022-11-27T17:43:55.664Z,4.20
2022-11-27T17:47:34.289Z,4.20
2022-11-27T17:51:11.300Z,4.19
2022-11-27T17:54:48.775Z,4.20
2022-11-27T17:58:26.583Z,4.17
2022-11-27T18:02:04.444Z,4.14
2022-11-27T18:05:41.989Z,4.12
2022-11-27T18:09:19.562Z,4.08
2022-11-27T18:12:57.296Z,4.02
2022-11-27T18:16:38.780Z,3.97
2022-11-27T18:20:12.805Z,3.93
2022-11-27T18:24:21.262Z,3.90
2022-11-27T18:27:28.112Z,3.90
2022-11-27T18:31:13.501Z,3.91
2022-11-27T18:34:44.954Z,3.91
2022-11-27T18:38:21.327Z,3.90
2022-11-27T18:41:58.951Z,3.90
2022-11-27T18:45:36.658Z,3.89
2022-11-27T18:49:14.439Z,3.89
2022-11-27T18:52:55.092Z,3.87
2022-11-27T18:56:31.818Z,3.86
2022-11-27T19:00:08.268Z,3.87
2022-11-27T19:03:45.153Z,3.86
2022-11-27T19:07:23.026Z,3.85
2022-11-27T19:11:03.598Z,3.87
2022-11-27T19:14:39.606Z,3.90
2022-11-27T19:18:15.972Z,3.92
2022-11-27T19:21:53.777Z,3.92
2022-11-27T19:25:38.716Z,3.93
2022-11-27T19:29:10.004Z,3.92
2022-11-27T19:32:48.836Z,3.92
2022-11-27T19:36:25.947Z,3.91
2022-11-27T19:40:02.025Z,3.88
2022-11-27T19:43:44.239Z,3.83
2022-11-27T19:47:17.708Z,3.77
2022-11-27T19:51:01.656Z,3.76
2022-11-27T19:54:32.909Z,3.76
2022-11-27T19:58:12.691Z,3.72
2022-11-27T20:01:48.392Z,3.68
2022-11-27T20:05:26.124Z,3.62
2022-11-27T20:09:05.691Z,3.55
2022-11-27T20:12:42.249Z,3.47
2022-11-27T20:16:21.128Z,3.43
2022-11-27T20:19:58.073Z,3.43
2022-11-27T20:23:35.302Z,3.41
2022-11-27T20:27:12.353Z,3.40
2022-11-27T20:31:25.334Z,3.40
2022-11-27T20:34:38.638Z,3.41
2022-11-27T20:38:18.079Z,3.43
2022-11-27T20:41:53.563Z,3.41
2022-11-27T20:45:30.411Z,3.41
2022-11-27T20:49:09.177Z,3.40
2022-11-27T20:52:48.120Z,3.37
2022-11-27T20:56:24.775Z,3.36
2022-11-27T21:00:01.211Z,3.36
2022-11-27T21:04:02.973Z,3.36
2022-11-27T21:07:20.786Z,3.34
2022-11-27T21:10:56.268Z,3.34
2022-11-27T21:14:37.661Z,3.32
2022-11-27T21:18:11.676Z,3.28
2022-11-27T21:21:50.111Z,3.26
2022-11-27T21:25:27.392Z,3.22
2022-11-27T21:29:04.488Z,3.19
2022-11-27T21:32:43.930Z,3.17
2022-11-27T21:36:22.997Z,3.17
2022-11-27T21:39:57.798Z,3.15
2022-11-27T21:43:35.402Z,3.14
2022-11-27T21:47:13.313Z,3.12
2022-11-27T21:50:50.707Z,3.06
2022-11-27T21:54:28.615Z,3.01
2022-11-27T21:58:06.319Z,2.96
2022-11-27T22:01:45.501Z,2.88
2022-11-27T22:05:21.627Z,2.80
2022-11-27T22:09:16.113Z,2.72
2022-11-27T22:12:36.930Z,2.66
2022-11-27T22:16:21.103Z,2.62
2022-11-27T22:19:52.380Z,2.56
2022-11-27T22:23:30.186Z,2.49
2022-11-27T22:27:07.891Z,2.45
2022-11-27T22:30:45.650Z,2.42
2022-11-27T22:34:23.402Z,2.31
2022-11-27T22:38:01.003Z,2.13
2022-11-27T22:41:40.285Z,2.00
2022-11-27T22:45:16.513Z,1.89
2022-11-27T22:48:59.030Z,1.75
2022-11-27T22:52:31.718Z,1.63
2022-11-27T22:56:12.615Z,1.51
2022-11-27T22:59:47.253Z,1.41
2022-11-27T23:03:24.940Z,1.29
2022-11-27T23:07:02.636Z,1.19
2022-11-27T23:10:40.647Z,1.09
2022-11-27T23:14:18.147Z,1.00
2022-11-27T23:17:55.462Z,0.91
2022-11-27T23:21:37.658Z,0.84
2022-11-27T23:25:10.852Z,0.81
2022-11-27T23:28:51.217Z,0.78
2022-11-27T23:32:26.354Z,0.75
2022-11-27T23:36:05.184Z,0.69
2022-11-27T23:39:41.565Z,0.64
2022-11-27T23:43:19.447Z,0.60
2022-11-27T23:46:57.075Z,0.60
2022-11-27T23:50:34.984Z,0.56
2022-11-27T23:54:12.791Z,0.51
2022-11-27T23:57:50.400Z,0.46
